createdAt,value
2022-11-22T00:02:14.970Z,98.31
2022-11-22T00:04:41.297Z,98.53
2022-11-22T00:07:07.702Z,98.76
2022-11-22T00:09:34.236Z,99.30
2022-11-22T00:12:00.575Z,98.93
2022-11-22T00:14:26.890Z,99.15
2022-11-22T00:16:53.197Z,99.14
2022-11-22T00:19:19.518Z,99.18
2022-11-22T00:21:45.823Z,99.02
2022-11-22T00:24:12.154Z,99.12
2022-11-22T00:26:38.481Z,99.07
2022-11-22T00:29:04.885Z,98.86
2022-11-22T00:31:31.228Z,99.18
2022-11-22T00:33:57.574Z,99.63
2022-11-22T00:36:23.901Z,99.54
2022-11-22T00:38:50.466Z,99.44
2022-11-22T00:41:16.778Z,99.67
2022-11-22T00:43:43.086Z,99.83
2022-11-22T00:46:09.483Z,99.87
2022-11-22T00:48:35.874Z,99.53
2022-11-22T00:51:02.216Z,99.44
2022-11-22T00:53:28.575Z,99.64
2022-11-22T00:55:54.911Z,99.76
2022-11-22T00:58:21.397Z,99.89
2022-11-22T01:00:50.974Z,99.78
2022-11-22T01:03:19.870Z,99.69
2022-11-22T01:05:46.210Z,99.77
2022-11-22T01:08:12.667Z,99.87
2022-11-22T01:10:39.045Z,99.35
2022-11-22T01:13:05.410Z,99.89
2022-11-22T01:15:31.725Z,99.89
2022-11-22T01:17:58.026Z,100.00
2022-11-22T01:20:24.391Z,99.74
2022-11-22T01:22:50.699Z,99.69
2022-11-22T01:25:17.057Z,100.00
2022-11-22T01:27:43.374Z,100.00
2022-11-22T01:30:09.758Z,100.00
2022-11-22T01:32:36.066Z,100.00
2022-11-22T01:35:02.429Z,100.00
2022-11-22T01:37:28.735Z,100.00
2022-11-22T01:39:55.085Z,100.00
2022-11-22T01:42:21.398Z,100.00
2022-11-22T01:44:47.761Z,100.00
2022-11-22T01:47:14.151Z,100.00
2022-11-22T01:49:40.611Z,100.00
2022-11-22T01:52:06.991Z,100.00
2022-11-22T01:54:33.379Z,100.00
2022-11-22T01:56:59.686Z,100.00
2022-11-22T01:59:26.060Z,100.00
2022-11-22T02:01:52.367Z,100.00
2022-11-22T02:04:18.726Z,100.00
2022-11-22T02:06:45.089Z,100.00
2022-11-22T02:09:12.334Z,100.00
2022-11-22T02:11:39.221Z,100.00
2022-11-22T02:14:05.535Z,100.00
2022-11-22T02:16:32.026Z,100.00
2022-11-22T02:18:58.347Z,100.00
2022-11-22T02:21:24.714Z,100.00
2022-11-22T02:23:51.191Z,100.00
2022-11-22T02:26:17.543Z,100.00
2022-11-22T02:28:43.870Z,100.00
2022-11-22T02:31:10.203Z,100.00
2022-11-22T02:33:38.247Z,100.00
2022-11-22T02:36:04.592Z,100.00
2022-11-22T02:38:30.917Z,100.00
2022-11-22T02:40:57.309Z,100.00
2022-11-22T02:43:23.641Z,100.00
2022-11-22T02:45:50.115Z,100.00
2022-11-22T02:48:16.447Z,100.00
2022-11-22T02:50:42.753Z,100.00
2022-11-22T02:53:09.111Z,100.00
2022-11-22T02:55:35.414Z,100.00
2022-11-22T02:58:01.740Z,100.00
2022-11-22T03:00:28.041Z,100.00
2022-11-22T03:02:54.438Z,100.00
2022-11-22T03:05:20.741Z,100.00
2022-11-22T03:07:47.171Z,100.00
2022-11-22T03:10:13.549Z,100.00
2022-11-22T03:12:39.918Z,100.00
2022-11-22T03:15:06.253Z,100.00
2022-11-22T03:17:32.595Z,100.00
2022-11-22T03:19:58.909Z,100.00
2022-11-22T03:22:25.219Z,100.00
2022-11-22T03:24:51.565Z,100.00
2022-11-22T03:27:17.999Z,100.00
2022-11-22T03:29:44.321Z,100.00
2022-11-22T03:32:10.629Z,100.00
2022-11-22T03:34:36.943Z,100.00
2022-11-22T03:37:03.371Z,100.00
2022-11-22T03:39:29.952Z,100.00
2022-11-22T03:41:56.595Z,100.00
2022-11-22T03:44:22.942Z,100.00
2022-11-22T03:46:49.295Z,100.00
2022-11-22T03:49:15.625Z,100.00
2022-11-22T03:51:41.981Z,100.00
2022-11-22T03:54:08.291Z,100.00
2022-11-22T03:56:34.623Z,100.00
2022-11-22T03:59:00.941Z,100.00
2022-11-22T04:01:27.327Z,100.00
2022-11-22T04:03:53.663Z,100.00
2022-11-22T04:06:20.039Z,100.00
2022-11-22T04:08:46.476Z,100.00
2022-11-22T04:11:12.911Z,100.00
2022-11-22T04:13:58.224Z,100.00
2022-11-22T04:16:24.654Z,100.00
2022-11-22T04:18:50.966Z,100.00
2022-11-22T04:21:35.584Z,100.00
2022-11-22T04:24:20.781Z,100.00
2022-11-22T04:26:47.368Z,99.96
2022-11-22T04:29:13.675Z,99.78
2022-11-22T04:31:58.858Z,99.22
2022-11-22T04:34:25.175Z,99.26
2022-11-22T04:36:51.543Z,98.84
2022-11-22T04:39:17.855Z,98.85
2022-11-22T04:41:44.207Z,98.71
2022-11-22T04:44:29.585Z,98.52
2022-11-22T04:46:55.917Z,98.33
2022-11-22T04:49:22.226Z,98.30
2022-11-22T04:52:07.553Z,98.23
2022-11-22T04:54:33.884Z,98.36
2022-11-22T04:57:00.205Z,98.40
2022-11-22T04:59:26.560Z,98.39
2022-11-22T05:01:52.933Z,98.77
2022-11-22T05:04:19.255Z,98.72
2022-11-22T05:06:47.551Z,98.65
2022-11-22T05:09:13.955Z,98.60
2022-11-22T05:11:40.280Z,98.17
2022-11-22T05:14:06.661Z,97.87
2022-11-22T05:16:32.988Z,97.95
2022-11-22T05:18:59.567Z,97.77
2022-11-22T05:21:28.250Z,97.75
2022-11-22T05:23:54.585Z,97.42
2022-11-22T05:26:22.508Z,97.17
2022-11-22T05:28:48.886Z,97.70
2022-11-22T05:31:15.295Z,97.50
2022-11-22T05:33:41.614Z,97.77
2022-11-22T05:36:07.954Z,97.43
2022-11-22T05:38:35.618Z,97.45
2022-11-22T05:41:02.325Z,97.56
2022-11-22T05:43:28.643Z,97.54
2022-11-22T05:45:55.039Z,97.65
2022-11-22T05:48:21.359Z,97.77
2022-11-22T05:50:47.682Z,97.84
2022-11-22T05:53:14.032Z,97.70
2022-11-22T05:55:40.347Z,97.63
2022-11-22T05:58:06.733Z,97.93
2022-11-22T06:00:33.108Z,97.66
2022-11-22T06:02:59.436Z,97.95
2022-11-22T06:05:25.762Z,97.67
2022-11-22T06:07:52.132Z,97.98
2022-11-22T06:10:19.889Z,97.87
2022-11-22T06:12:46.201Z,97.78
2022-11-22T06:15:12.517Z,97.53
2022-11-22T06:17:38.817Z,97.48
2022-11-22T06:20:06.641Z,96.92
2022-11-22T06:22:33.470Z,96.71
2022-11-22T06:24:59.965Z,96.44
2022-11-22T06:27:26.300Z,96.12
2022-11-22T06:29:52.623Z,96.14
2022-11-22T06:32:18.945Z,96.37
2022-11-22T06:34:45.254Z,96.14
2022-11-22T06:37:11.597Z,96.33
2022-11-22T06:39:37.981Z,96.25
2022-11-22T06:42:04.442Z,95.84
2022-11-22T06:44:30.747Z,96.37
2022-11-22T06:46:58.494Z,96.18
2022-11-22T06:49:24.910Z,95.96
2022-11-22T06:51:51.466Z,96.30
2022-11-22T06:54:17.807Z,95.87
2022-11-22T06:56:44.176Z,95.75
2022-11-22T06:59:10.561Z,96.03
2022-11-22T07:01:37.648Z,95.78
2022-11-22T07:04:04.108Z,95.79
2022-11-22T07:06:30.454Z,95.69
2022-11-22T07:08:56.791Z,95.54
2022-11-22T07:11:23.104Z,95.56
2022-11-22T07:13:49.501Z,95.03
2022-11-22T07:16:15.956Z,94.95
2022-11-22T07:18:42.275Z,94.93
2022-11-22T07:21:12.786Z,94.75
2022-11-22T07:23:39.911Z,94.91
2022-11-22T07:26:06.209Z,94.45
2022-11-22T07:28:35.590Z,94.17
2022-11-22T07:31:01.932Z,93.58
2022-11-22T07:33:28.313Z,93.22
2022-11-22T07:35:58.455Z,93.43
2022-11-22T07:38:24.767Z,93.17
2022-11-22T07:40:51.100Z,93.03
2022-11-22T07:43:17.419Z,93.09
2022-11-22T07:45:43.763Z,92.85
2022-11-22T07:48:14.793Z,92.77
2022-11-22T07:50:41.417Z,92.65
2022-11-22T07:53:08.379Z,92.47
2022-11-22T07:55:34.725Z,92.62
2022-11-22T07:58:01.080Z,92.26
2022-11-22T08:00:27.383Z,92.11
2022-11-22T08:02:53.726Z,91.94
2022-11-22T08:05:20.061Z,91.75
2022-11-22T08:07:46.627Z,91.81
2022-11-22T08:10:13.027Z,91.46
2022-11-22T08:12:39.391Z,91.29
2022-11-22T08:15:05.761Z,91.51
2022-11-22T08:17:32.109Z,91.58
2022-11-22T08:19:58.419Z,91.06
2022-11-22T08:22:24.750Z,90.53
2022-11-22T08:24:51.072Z,90.33
2022-11-22T08:27:17.382Z,90.23
2022-11-22T08:29:43.702Z,89.63
2022-11-22T08:32:10.012Z,89.35
2022-11-22T08:34:38.223Z,88.35
2022-11-22T08:37:05.542Z,88.29
2022-11-22T08:39:32.054Z,87.56
2022-11-22T08:41:58.454Z,87.43
2022-11-22T08:44:24.832Z,86.67
2022-11-22T08:46:51.143Z,87.07
2022-11-22T08:49:17.492Z,87.04
2022-11-22T08:51:45.435Z,87.09
2022-11-22T08:54:11.766Z,86.80
2022-11-22T08:56:38.182Z,86.69
2022-11-22T08:59:04.624Z,85.99
2022-11-22T09:01:31.096Z,86.25
2022-11-22T09:03:57.462Z,86.12
2022-11-22T09:11:56.446Z,84.80
2022-11-22T09:14:22.762Z,84.97
2022-11-22T09:16:49.113Z,84.72
2022-11-22T09:19:15.413Z,84.96
2022-11-22T09:21:41.744Z,84.50
2022-11-22T09:24:08.113Z,84.67
2022-11-22T09:26:34.470Z,83.73
2022-11-22T09:29:00.880Z,83.63
2022-11-22T09:31:27.210Z,82.98
2022-11-22T09:33:53.565Z,81.52
2022-11-22T09:36:19.944Z,82.28
2022-11-22T09:38:46.296Z,81.61
2022-11-22T09:41:12.633Z,80.38
2022-11-22T09:43:39.011Z,80.73
2022-11-22T09:46:05.332Z,79.94
2022-11-22T09:48:31.653Z,79.18
2022-11-22T09:50:57.953Z,79.18
2022-11-22T09:53:24.285Z,78.50
2022-11-22T09:55:51.133Z,79.36
2022-11-22T09:58:17.454Z,78.75
2022-11-22T10:00:49.136Z,78.03
2022-11-22T10:03:18.387Z,78.33
2022-11-22T10:05:44.695Z,78.01
2022-11-22T10:08:11.023Z,77.07
2022-11-22T10:10:37.361Z,77.56
2022-11-22T10:13:03.772Z,76.94
2022-11-22T10:15:30.289Z,77.01
2022-11-22T10:17:56.626Z,76.47
2022-11-22T10:20:22.985Z,77.15
2022-11-22T10:22:49.374Z,77.41
2022-11-22T10:25:15.817Z,77.54
2022-11-22T10:27:42.178Z,77.52
2022-11-22T10:30:08.497Z,77.21
2022-11-22T10:32:34.808Z,76.45
2022-11-22T10:35:01.109Z,77.49
2022-11-22T10:37:27.410Z,76.73
2022-11-22T10:39:53.771Z,76.65
2022-11-22T10:42:20.185Z,77.11
2022-11-22T10:44:46.499Z,76.88
2022-11-22T10:47:12.843Z,75.98
2022-11-22T10:49:39.164Z,75.77
2022-11-22T10:52:05.650Z,75.56
2022-11-22T10:54:31.950Z,75.97
2022-11-22T10:56:58.263Z,74.88
2022-11-22T10:59:28.712Z,75.70
2022-11-22T11:01:55.531Z,74.85
2022-11-22T11:04:21.896Z,73.87
2022-11-22T11:12:20.934Z,74.33
2022-11-22T11:14:47.314Z,74.91
2022-11-22T11:17:13.656Z,75.80
2022-11-22T11:19:40.218Z,76.18
2022-11-22T11:22:06.562Z,75.46
2022-11-22T11:24:33.173Z,75.82
2022-11-22T11:26:59.829Z,75.52
2022-11-22T11:29:26.139Z,76.08
2022-11-22T11:31:52.545Z,75.83
2022-11-22T11:34:18.858Z,76.02
2022-11-22T11:36:45.189Z,75.80
2022-11-22T11:39:11.502Z,75.85
2022-11-22T11:41:43.253Z,75.95
2022-11-22T11:44:09.917Z,75.75
2022-11-22T11:46:36.231Z,75.99
2022-11-22T11:49:02.546Z,75.49
2022-11-22T11:51:28.855Z,75.27
2022-11-22T11:53:55.480Z,75.94
2022-11-22T11:56:22.066Z,75.81
2022-11-22T11:58:48.672Z,75.85
2022-11-22T12:01:15.055Z,76.28
2022-11-22T12:03:41.419Z,76.95
2022-11-22T12:06:07.784Z,77.13
2022-11-22T12:08:34.105Z,76.78
2022-11-22T12:11:00.500Z,78.00
2022-11-22T12:13:27.640Z,77.44
2022-11-22T12:15:54.542Z,77.92
2022-11-22T12:18:21.010Z,77.64
2022-11-22T12:20:47.324Z,77.67
2022-11-22T12:23:13.672Z,77.82
2022-11-22T12:25:40.508Z,78.53
2022-11-22T12:28:07.069Z,78.55
2022-11-22T12:30:33.468Z,79.34
2022-11-22T12:32:59.777Z,78.51
2022-11-22T12:35:26.166Z,78.84
2022-11-22T12:37:52.490Z,78.70
2022-11-22T12:40:20.370Z,78.81
2022-11-22T12:42:46.708Z,78.38
2022-11-22T12:45:13.146Z,78.73
2022-11-22T12:47:39.936Z,79.34
2022-11-22T12:50:06.296Z,79.78
2022-11-22T12:52:32.629Z,79.14
2022-11-22T12:54:59.035Z,79.54
2022-11-22T12:57:25.350Z,79.26
2022-11-22T12:59:51.661Z,79.90
2022-11-22T13:02:18.075Z,79.46
2022-11-22T13:04:44.577Z,79.78
2022-11-22T13:07:10.980Z,79.31
2022-11-22T13:09:37.343Z,79.70
2022-11-22T13:12:03.758Z,79.11
2022-11-22T13:14:30.278Z,80.28
2022-11-22T13:16:57.266Z,79.58
2022-11-22T13:19:23.599Z,79.85
2022-11-22T13:21:49.949Z,78.97
2022-11-22T13:24:16.295Z,79.12
2022-11-22T13:26:43.166Z,79.44
2022-11-22T13:29:09.491Z,79.48
2022-11-22T13:31:40.832Z,79.17
2022-11-22T13:34:07.591Z,79.16
2022-11-22T13:36:34.016Z,79.27
2022-11-22T13:39:00.326Z,79.38
2022-11-22T13:41:26.662Z,79.16
2022-11-22T13:43:52.989Z,78.99
2022-11-22T13:46:19.331Z,78.99
2022-11-22T13:48:47.609Z,78.82
2022-11-22T13:51:14.210Z,79.23
2022-11-22T13:53:42.710Z,79.54
2022-11-22T13:56:09.088Z,79.26
2022-11-22T13:58:35.401Z,79.95
2022-11-22T14:01:01.865Z,80.15
2022-11-22T14:03:28.668Z,80.49
2022-11-22T14:05:55.020Z,80.31
2022-11-22T14:08:21.419Z,80.25
2022-11-22T14:10:47.741Z,80.46
2022-11-22T14:13:14.061Z,80.54
2022-11-22T14:15:40.379Z,80.39
2022-11-22T14:18:06.695Z,79.87
2022-11-22T14:20:33.093Z,80.18
2022-11-22T14:22:59.435Z,80.53
2022-11-22T14:25:25.748Z,80.53
2022-11-22T14:27:52.187Z,80.26
2022-11-22T14:30:18.821Z,80.12
2022-11-22T14:32:45.133Z,80.49
2022-11-22T14:35:11.499Z,80.69
2022-11-22T14:37:37.819Z,81.36
2022-11-22T14:40:04.140Z,81.08
2022-11-22T14:42:30.477Z,80.86
2022-11-22T14:44:56.802Z,81.46
2022-11-22T14:47:23.202Z,81.30
2022-11-22T14:49:49.506Z,81.53
2022-11-22T14:52:15.835Z,81.32
2022-11-22T14:54:42.201Z,81.69
2022-11-22T14:57:08.579Z,81.79
2022-11-22T14:59:34.952Z,81.79
2022-11-22T15:02:01.354Z,82.26
2022-11-22T15:09:15.080Z,82.83
2022-11-22T15:09:16.599Z,82.62
2022-11-22T15:10:00.622Z,82.84
2022-11-22T15:12:27.308Z,84.02
2022-11-22T15:14:53.615Z,83.89
2022-11-22T15:58:55.646Z,84.88
2022-11-22T16:01:22.338Z,85.30
2022-11-22T16:03:48.752Z,85.21
2022-11-22T16:06:15.139Z,85.63
2022-11-22T16:08:41.505Z,85.30
2022-11-22T16:11:07.822Z,85.61
2022-11-22T16:13:34.241Z,85.55
2022-11-22T16:16:00.734Z,85.64
2022-11-22T16:18:27.058Z,85.68
2022-11-22T16:20:57.543Z,85.39
2022-11-22T16:23:23.886Z,86.11
2022-11-22T16:25:50.268Z,85.61
2022-11-22T16:28:16.584Z,86.59
2022-11-22T16:30:45.127Z,86.03
2022-11-22T16:33:11.439Z,85.76
2022-11-22T16:35:37.753Z,86.54
2022-11-22T16:38:04.149Z,86.11
2022-11-22T16:40:30.465Z,86.16
2022-11-22T16:42:56.796Z,86.63
2022-11-22T16:45:23.174Z,86.09
2022-11-22T16:47:58.490Z,85.87
2022-11-22T16:50:38.011Z,85.48
2022-11-22T16:53:04.390Z,86.03
2022-11-22T16:55:30.706Z,85.89
2022-11-22T16:57:58.999Z,85.94
2022-11-22T17:00:25.320Z,83.62
2022-11-22T17:02:51.646Z,82.54
2022-11-22T17:05:18.353Z,82.51
2022-11-22T17:07:44.822Z,82.84
2022-11-22T17:10:11.196Z,81.46
2022-11-22T17:12:37.548Z,81.26
2022-11-22T17:15:04.976Z,81.57
2022-11-22T17:17:31.306Z,81.71
2022-11-22T17:19:58.253Z,81.89
2022-11-22T17:22:24.667Z,80.89
2022-11-22T17:24:50.973Z,80.76
2022-11-22T17:27:17.278Z,80.41
2022-11-22T17:29:51.490Z,81.03
2022-11-22T17:32:17.936Z,81.01
2022-11-22T17:34:44.629Z,80.66
2022-11-22T17:37:11.144Z,81.45
2022-11-22T17:39:37.474Z,81.39
2022-11-22T17:42:03.795Z,81.04
2022-11-22T17:44:30.135Z,81.21
2022-11-22T17:46:56.579Z,82.19
2022-11-22T17:49:22.952Z,82.34
2022-11-22T17:51:49.346Z,81.75
2022-11-22T17:54:15.897Z,81.63
2022-11-22T17:56:42.234Z,80.86
2022-11-22T17:59:08.553Z,81.16
2022-11-22T18:01:36.941Z,80.80
2022-11-22T18:04:03.416Z,81.02
2022-11-22T18:06:29.797Z,81.79
2022-11-22T18:08:59.949Z,82.41
2022-11-22T18:11:26.258Z,81.77
2022-11-22T18:13:52.577Z,82.30
2022-11-22T18:16:18.933Z,81.57
2022-11-22T18:19:00.788Z,81.38
2022-11-22T18:21:29.648Z,81.94
2022-11-22T18:23:56.273Z,82.18
2022-11-22T18:26:39.754Z,82.14
2022-11-22T18:31:53.826Z,82.69
2022-11-22T18:34:23.896Z,82.95
2022-11-22T18:37:01.937Z,83.46
2022-11-22T18:39:31.527Z,83.86
2022-11-22T18:41:58.188Z,83.77
2022-11-22T18:44:27.922Z,82.83
2022-11-22T18:46:54.230Z,82.56
2022-11-22T18:49:20.598Z,83.40
2022-11-22T18:51:46.910Z,83.59
2022-11-22T18:54:13.545Z,83.85
2022-11-22T18:56:40.839Z,83.26
2022-11-22T18:59:07.601Z,82.93
2022-11-22T19:01:34.761Z,83.04
2022-11-22T19:04:04.909Z,83.15
2022-11-22T19:06:31.311Z,83.02
2022-11-22T19:08:57.641Z,83.16
2022-11-22T19:11:24.012Z,82.69
2022-11-22T19:13:50.324Z,83.52
2022-11-22T19:16:19.910Z,82.80
2022-11-22T19:18:46.288Z,83.08
2022-11-22T19:21:12.615Z,83.15
2022-11-22T19:23:41.181Z,83.46
2022-11-22T19:26:07.524Z,83.69
2022-11-22T19:28:34.072Z,83.38
2022-11-22T19:33:32.136Z,83.62
2022-11-22T19:35:58.504Z,83.56
2022-11-22T19:38:24.851Z,83.58
2022-11-22T19:40:52.902Z,83.86
2022-11-22T19:43:19.231Z,84.08
2022-11-22T19:45:45.537Z,84.31
2022-11-22T19:48:12.205Z,84.28
2022-11-22T19:50:38.870Z,84.77
2022-11-22T19:53:05.174Z,84.87
2022-11-22T19:55:31.546Z,85.21
2022-11-22T19:57:57.884Z,85.25
2022-11-22T20:00:24.488Z,85.34
2022-11-22T20:02:50.846Z,86.26
2022-11-22T20:05:17.259Z,86.20
2022-11-22T20:07:43.636Z,85.48
2022-11-22T20:10:10.103Z,85.71
2022-11-22T20:12:36.457Z,86.26
2022-11-22T20:15:02.814Z,86.15
2022-11-22T20:17:29.365Z,85.98
2022-11-22T20:19:55.680Z,85.96
2022-11-22T20:22:23.905Z,86.45
2022-11-22T20:24:50.227Z,87.28
2022-11-22T20:27:23.211Z,87.19
2022-11-22T20:29:54.915Z,86.72
2022-11-22T20:32:21.288Z,87.53
2022-11-22T20:34:47.610Z,87.62
2022-11-22T20:37:17.897Z,87.97
2022-11-22T20:39:44.246Z,88.14
2022-11-22T20:42:33.785Z,88.52
2022-11-22T20:44:58.486Z,87.91
2022-11-22T20:47:24.864Z,87.59
2022-11-22T20:49:51.201Z,88.25
2022-11-22T20:57:21.503Z,88.59
2022-11-22T20:59:47.823Z,88.42
2022-11-22T21:02:14.157Z,88.57
2022-11-22T21:04:40.679Z,88.34
2022-11-22T21:07:07.056Z,88.89
2022-11-22T21:09:33.743Z,88.92
2022-11-22T21:12:00.087Z,88.61
2022-11-22T21:14:26.576Z,88.45
2022-11-22T21:16:52.950Z,88.46
2022-11-22T21:19:19.407Z,88.86
2022-11-22T21:21:45.715Z,88.87
2022-11-22T21:24:13.116Z,88.83
2022-11-22T21:26:39.509Z,89.05
2022-11-22T21:29:16.012Z,88.53
2022-11-22T21:31:42.954Z,88.83
2022-11-22T21:34:09.269Z,88.45
2022-11-22T21:36:35.773Z,88.34
2022-11-22T21:39:02.065Z,88.86
2022-11-22T21:41:43.818Z,88.63
2022-11-22T21:44:11.004Z,88.15
2022-11-22T21:46:37.615Z,87.95
2022-11-22T21:49:03.950Z,87.86
2022-11-22T21:51:30.467Z,87.84
2022-11-22T21:53:57.253Z,87.72
2022-11-22T21:56:23.603Z,87.84
2022-11-22T21:58:49.930Z,87.52
2022-11-22T22:01:16.247Z,87.78
2022-11-22T22:03:45.832Z,87.62
2022-11-22T22:06:12.176Z,88.00
2022-11-22T22:08:38.652Z,88.21
2022-11-22T22:11:05.578Z,88.31
2022-11-22T22:13:31.995Z,88.21
2022-11-22T22:15:58.409Z,87.88
2022-11-22T22:18:24.763Z,87.50
2022-11-22T22:20:51.081Z,87.67
2022-11-22T22:23:17.405Z,87.56
2022-11-22T22:25:46.841Z,87.98
2022-11-22T22:28:13.161Z,87.56
2022-11-22T22:30:39.717Z,87.89
2022-11-22T22:33:06.031Z,87.71
2022-11-22T22:35:32.349Z,87.27
2022-11-22T22:37:58.713Z,87.24
2022-11-22T22:40:25.035Z,87.09
2022-11-22T22:42:54.874Z,87.23
2022-11-22T22:45:21.199Z,87.29
2022-11-22T22:47:47.502Z,87.76
2022-11-22T22:50:13.914Z,87.40
2022-11-22T22:52:40.218Z,87.80
2022-11-22T22:55:06.586Z,87.46
2022-11-22T22:57:32.950Z,87.94
2022-11-22T22:59:59.257Z,87.90
2022-11-22T23:02:25.796Z,88.79
2022-11-22T23:04:52.105Z,88.31
2022-11-22T23:07:18.654Z,88.56
2022-11-22T23:09:45.457Z,88.39
2022-11-22T23:12:11.992Z,88.38
2022-11-22T23:14:39.729Z,88.65
2022-11-22T23:17:06.099Z,88.38
2022-11-22T23:19:32.591Z,89.11
2022-11-22T23:22:00.789Z,88.85
2022-11-22T23:24:27.191Z,88.50
2022-11-22T23:26:53.592Z,88.14
2022-11-22T23:29:19.921Z,88.27
2022-11-22T23:31:46.236Z,88.19
2022-11-22T23:34:15.864Z,88.56
2022-11-22T23:36:42.218Z,88.83
2022-11-22T23:39:08.534Z,88.52
2022-11-22T23:41:34.911Z,88.61
2022-11-22T23:44:01.230Z,88.87
2022-11-22T23:46:28.955Z,88.69
2022-11-22T23:48:55.300Z,89.06
2022-11-22T23:51:21.629Z,88.98
2022-11-22T23:53:48.193Z,89.10
2022-11-22T23:56:17.937Z,89.25
2022-11-22T23:58:47.856Z,89.67
